Time;durP1;ratioP1;P1;durP2;ratioP2;P2;SDS_P1;SDS_P2;PMS_P1;PMS_P2;Temp;Humidity;BMP_temperature;BMP_pressure;BME280_temperature;BME280_humidity;BME280_pressure;Samples;Min_cycle;Max_cycle;Signal;HPM_P1;HPM_P2
2023/03/16 00:00:13;;;;;;;;;;;;;;;10.10;98.34;100651.72;7359252;19;19926;-64
2023/03/16 00:02:40;;;;;;;;;;;;;;;10.09;98.50;100661.41;7362066;19;19954;-63
2023/03/16 00:05:08;;;;;;;;;;;;;;;10.13;98.75;100654.03;7359920;19;20351;-63
2023/03/16 00:07:35;;;;;;;;;;;;;;;10.14;98.54;100655.69;7364179;19;19931;-64
2023/03/16 00:10:04;;;;;;;;;;;;;;;10.17;98.79;100650.16;7364248;19;19923;-66
2023/03/16 00:12:33;;;;;;;;;;;;;;;10.16;98.26;100651.13;7362682;19;19999;-62
2023/03/16 00:15:00;;;;;;;;;;;;;;;10.12;98.14;100650.59;7365580;19;19955;-62
2023/03/16 00:17:29;;;;;;;;;;;;;;;10.13;98.63;100646.16;7358390;19;19926;-62
2023/03/16 00:19:56;;;;;;;;;;;;;;;10.16;99.18;100643.22;7351331;19;20006;-66
2023/03/16 00:22:24;;;;;;;;;;;;;;;10.14;99.37;100638.13;7361192;19;19930;-64
2023/03/16 00:24:51;;;;;;;;;;;;;;;10.12;98.59;100639.25;7362691;19;20337;-63
2023/03/16 00:27:21;;;;;;;;;;;;;;;10.12;98.64;100636.59;7363350;19;20463;-64
2023/03/16 00:29:54;;;;;;;;;;;;;;;10.13;98.93;100635.63;7365842;19;19934;-64
2023/03/16 00:32:25;;;;;;;;;;;;;;;10.15;99.36;100625.81;7361460;19;20016;-64
2023/03/16 00:34:52;;;;;;;;;;;;;;;10.16;99.30;100627.47;7364181;19;19918;-63
2023/03/16 00:37:22;;;;;;;;;;;;;;;10.16;99.38;100619.56;7363754;19;19925;-64
2023/03/16 00:39:49;;;;;;;;;;;;;;;10.18;99.46;100617.63;7362637;19;19919;-63
2023/03/16 00:42:17;;;;;;;;;;;;;;;10.20;100.00;100613.88;7364926;19;19926;-63
2023/03/16 00:44:43;;;;;;;;;;;;;;;10.23;100.00;100610.09;7356712;19;19927;-63
2023/03/16 00:47:13;;;;;;;;;;;;;;;10.25;100.00;100611.59;7364600;19;20509;-63
2023/03/16 00:49:41;;;;;;;;;;;;;;;10.28;100.00;100607.81;7362200;19;19927;-62
2023/03/16 00:52:13;;;;;;;;;;;;;;;10.25;100.00;100600.25;7361024;19;19930;-63
2023/03/16 00:54:44;;;;;;;;;;;;;;;10.20;100.00;100600.72;7358371;19;20504;-62
2023/03/16 00:57:12;;;;;;;;;;;;;;;10.20;99.89;100584.13;7360808;19;19919;-62
2023/03/16 00:59:39;;;;;;;;;;;;;;;10.19;100.00;100575.41;7361853;19;20182;-64
2023/03/16 01:02:07;;;;;;;;;;;;;;;10.22;100.00;100579.53;7361979;19;20833;-62
2023/03/16 01:04:35;;;;;;;;;;;;;;;10.24;100.00;100570.50;7358633;19;20475;-63
2023/03/16 01:07:02;;;;;;;;;;;;;;;10.25;100.00;100564.28;7365056;19;20345;-63
2023/03/16 01:09:30;;;;;;;;;;;;;;;10.28;100.00;100556.06;7353945;19;19926;-63
2023/03/16 01:11:57;;;;;;;;;;;;;;;10.29;100.00;100551.63;7363887;19;20476;-62
2023/03/16 01:14:24;;;;;;;;;;;;;;;10.29;100.00;100549.81;7364729;19;19922;-64
2023/03/16 01:16:51;;;;;;;;;;;;;;;10.34;100.00;100554.59;7362131;19;19929;-65
2023/03/16 01:19:18;;;;;;;;;;;;;;;10.36;100.00;100557.09;7358913;19;19925;-65
2023/03/16 01:21:45;;;;;;;;;;;;;;;10.39;100.00;100554.13;7358177;19;19923;-64
2023/03/16 01:24:11;;;;;;;;;;;;;;;10.39;100.00;100549.69;7359470;19;19922;-64
2023/03/16 01:26:38;;;;;;;;;;;;;;;10.41;100.00;100546.91;7362470;19;21726;-64
2023/03/16 01:29:06;;;;;;;;;;;;;;;10.40;100.00;100530.31;7361302;19;19957;-63
2023/03/16 01:31:33;;;;;;;;;;;;;;;10.43;100.00;100529.16;7362015;19;20354;-63
2023/03/16 01:34:02;;;;;;;;;;;;;;;10.43;100.00;100522.09;7356854;19;19922;-63
2023/03/16 01:36:33;;;;;;;;;;;;;;;10.45;100.00;100514.88;7364267;19;19990;-63
2023/03/16 01:39:01;;;;;;;;;;;;;;;10.43;100.00;100508.94;7342587;19;19929;-63
2023/03/16 01:41:29;;;;;;;;;;;;;;;10.42;100.00;100502.03;7365008;19;21679;-62
2023/03/16 01:43:57;;;;;;;;;;;;;;;10.45;100.00;100503.53;7360081;19;20920;-63
2023/03/16 01:46:28;;;;;;;;;;;;;;;10.46;100.00;100513.06;7363168;19;20662;-62
2023/03/16 01:49:15;;;;;;;;;;;;;;;10.46;100.00;100516.53;7355335;19;19986;-63
2023/03/16 01:51:42;;;;;;;;;;;;;;;10.45;100.00;100512.25;7359773;19;20205;-64
2023/03/16 01:54:14;;;;;;;;;;;;;;;10.46;100.00;100500.75;7357874;19;19937;-64
2023/03/16 01:56:50;;;;;;;;;;;;;;;10.49;100.00;100495.16;7361205;19;20288;-63
2023/03/16 01:59:21;;;;;;;;;;;;;;;10.51;100.00;100490.56;7360453;19;19934;-62
2023/03/16 02:01:50;;;;;;;;;;;;;;;10.52;100.00;100496.63;7358259;19;19986;-64
2023/03/16 02:04:25;;;;;;;;;;;;;;;10.53;100.00;100479.88;7358035;19;19990;-63
2023/03/16 02:06:53;;;;;;;;;;;;;;;10.54;100.00;100478.88;7361156;19;20191;-64
2023/03/16 02:09:21;;;;;;;;;;;;;;;10.53;100.00;100475.44;7357850;19;19924;-62
2023/03/16 02:11:48;;;;;;;;;;;;;;;10.56;100.00;100469.03;7359509;19;19919;-63
2023/03/16 02:14:15;;;;;;;;;;;;;;;10.57;100.00;100468.84;7359215;19;19914;-63
2023/03/16 02:16:41;;;;;;;;;;;;;;;10.57;100.00;100465.41;7359885;19;19921;-63
2023/03/16 02:19:15;;;;;;;;;;;;;;;10.60;100.00;100457.19;7359376;19;20106;-64
2023/03/16 02:21:45;;;;;;;;;;;;;;;10.59;100.00;100445.84;7360016;19;20291;-62
2023/03/16 02:24:12;;;;;;;;;;;;;;;10.60;100.00;100449.31;7356816;19;20894;-63
2023/03/16 02:26:38;;;;;;;;;;;;;;;10.60;100.00;100444.06;7359975;19;19934;-62
2023/03/16 02:29:12;;;;;;;;;;;;;;;10.64;100.00;100448.81;7356715;19;19929;-66
2023/03/16 02:31:39;;;;;;;;;;;;;;;10.64;100.00;100435.66;7355444;19;19925;-62
2023/03/16 02:34:08;;;;;;;;;;;;;;;10.66;100.00;100446.88;7357421;19;19937;-62
2023/03/16 02:36:36;;;;;;;;;;;;;;;10.65;100.00;100450.47;7359687;19;19957;-63
2023/03/16 02:39:04;;;;;;;;;;;;;;;10.66;100.00;100444.22;7356643;19;19935;-63
2023/03/16 02:41:31;;;;;;;;;;;;;;;10.67;100.00;100430.06;7359837;19;20392;-63
2023/03/16 02:43:58;;;;;;;;;;;;;;;10.70;100.00;100429.75;7357846;19;19936;-63
2023/03/16 02:46:26;;;;;;;;;;;;;;;10.70;100.00;100426.31;7358333;19;19927;-62
2023/03/16 02:49:12;;;;;;;;;;;;;;;10.75;100.00;100428.44;7353445;19;19937;-62
2023/03/16 02:51:39;;;;;;;;;;;;;;;10.77;100.00;100418.59;7352380;19;19945;-64
2023/03/16 02:54:06;;;;;;;;;;;;;;;10.77;100.00;100408.84;7352359;19;19919;-62
2023/03/16 02:56:33;;;;;;;;;;;;;;;10.79;100.00;100399.00;7358991;19;19933;-63
2023/03/16 02:59:00;;;;;;;;;;;;;;;10.81;100.00;100396.22;7354868;19;20185;-65
2023/03/16 03:01:27;;;;;;;;;;;;;;;10.80;100.00;100390.13;7358616;19;19914;-63
2023/03/16 03:03:54;;;;;;;;;;;;;;;10.83;100.00;100402.09;7356582;19;19919;-63
2023/03/16 03:06:23;;;;;;;;;;;;;;;10.83;100.00;100405.56;7358373;19;19923;-62
2023/03/16 03:08:51;;;;;;;;;;;;;;;10.84;100.00;100391.44;7355114;19;19919;-64
2023/03/16 03:11:18;;;;;;;;;;;;;;;10.87;100.00;100391.09;7357783;19;20408;-62
2023/03/16 03:13:46;;;;;;;;;;;;;;;10.90;100.00;100390.78;7353989;19;19935;-62
2023/03/16 03:16:13;;;;;;;;;;;;;;;10.90;100.00;100374.97;7357624;19;19918;-64
2023/03/16 03:18:40;;;;;;;;;;;;;;;10.92;100.00;100374.81;7357801;19;21861;-63
2023/03/16 03:21:13;;;;;;;;;;;;;;;10.97;100.00;100377.78;7357209;19;19929;-62
2023/03/16 03:23:39;;;;;;;;;;;;;;;10.96;100.00;100384.84;7355406;19;21059;-63
2023/03/16 03:26:06;;;;;;;;;;;;;;;10.97;100.00;100375.94;7357703;19;19974;-64
2023/03/16 03:28:33;;;;;;;;;;;;;;;11.01;100.00;100385.16;7355562;19;19915;-62
2023/03/16 03:31:06;;;;;;;;;;;;;;;11.03;100.00;100374.47;7360468;19;19923;-63
2023/03/16 03:33:33;;;;;;;;;;;;;;;11.04;100.00;100371.66;7356318;19;19941;-63
2023/03/16 03:36:00;;;;;;;;;;;;;;;11.07;100.00;100373.94;7358459;19;19929;-63
2023/03/16 03:38:28;;;;;;;;;;;;;;;11.08;100.00;100367.69;7355061;19;19966;-63
2023/03/16 03:41:00;;;;;;;;;;;;;;;11.11;100.00;100366.56;7356430;19;19923;-63
2023/03/16 03:43:34;;;;;;;;;;;;;;;11.10;100.00;100365.75;7355726;19;20552;-63
2023/03/16 03:46:02;;;;;;;;;;;;;;;11.11;100.00;100363.94;7359045;19;19994;-63
2023/03/16 03:48:32;;;;;;;;;;;;;;;11.09;100.00;100371.16;7355383;19;19911;-62
2023/03/16 03:51:00;;;;;;;;;;;;;;;11.09;100.00;100371.97;7353531;19;19941;-62
2023/03/16 03:53:26;;;;;;;;;;;;;;;11.12;100.00;100366.38;7353671;19;21588;-62
2023/03/16 03:55:53;;;;;;;;;;;;;;;11.14;100.00;100367.03;7358989;19;19944;-64
2023/03/16 03:58:20;;;;;;;;;;;;;;;11.14;100.00;100369.66;7357299;19;19982;-63
2023/03/16 04:00:48;;;;;;;;;;;;;;;11.17;100.00;100365.91;7356353;19;19922;-62
2023/03/16 04:03:16;;;;;;;;;;;;;;;11.18;100.00;100366.69;7358695;19;19929;-62
2023/03/16 04:05:43;;;;;;;;;;;;;;;11.19;100.00;100363.06;7356556;19;19929;-63
2023/03/16 04:08:10;;;;;;;;;;;;;;;11.22;100.00;100373.28;7355926;19;20606;-62
2023/03/16 04:10:37;;;;;;;;;;;;;;;11.22;100.00;100374.13;7354201;19;20228;-63
2023/03/16 04:13:04;;;;;;;;;;;;;;;11.25;100.00;100372.94;7356548;19;19934;-64
2023/03/16 04:15:32;;;;;;;;;;;;;;;11.25;100.00;100371.13;7354316;19;20880;-63
2023/03/16 04:18:00;;;;;;;;;;;;;;;11.29;100.00;100364.53;7357251;19;20407;-63
2023/03/16 04:20:28;;;;;;;;;;;;;;;11.32;100.00;100355.47;7355996;19;19930;-63
2023/03/16 04:22:57;;;;;;;;;;;;;;;11.30;100.00;100355.66;7356557;19;19929;-62
2023/03/16 04:25:29;;;;;;;;;;;;;;;11.30;100.00;100349.56;7354090;19;19930;-63
2023/03/16 04:27:56;;;;;;;;;;;;;;;11.31;100.00;100353.84;7355867;19;20095;-66
2023/03/16 04:30:24;;;;;;;;;;;;;;;11.30;100.00;100358.28;7352506;19;19926;-62
2023/03/16 04:32:51;;;;;;;;;;;;;;;11.33;100.00;100354.47;7356583;19;20015;-63
2023/03/16 04:35:19;;;;;;;;;;;;;;;11.32;100.00;100355.47;7360696;19;19926;-63
2023/03/16 04:37:45;;;;;;;;;;;;;;;11.33;100.00;100357.09;7365045;19;19922;-63
2023/03/16 04:40:15;;;;;;;;;;;;;;;11.36;100.00;100348.88;7362219;19;20381;-63
2023/03/16 04:42:43;;;;;;;;;;;;;;;11.37;100.00;100347.91;7364395;19;20634;-62
2023/03/16 04:45:11;;;;;;;;;;;;;;;11.38;100.00;100349.50;7363331;19;19934;-63
2023/03/16 04:47:38;;;;;;;;;;;;;;;11.40;100.00;100348.38;7360588;19;20615;-63
2023/03/16 04:50:06;;;;;;;;;;;;;;;11.42;100.00;100348.22;7361840;19;20448;-64
2023/03/16 04:52:32;;;;;;;;;;;;;;;11.41;100.00;100346.56;7360467;19;19927;-64
2023/03/16 04:54:59;;;;;;;;;;;;;;;11.45;100.00;100353.94;7357640;19;19915;-63
2023/03/16 04:57:26;;;;;;;;;;;;;;;11.46;100.00;100349.50;7362170;19;19919;-65
2023/03/16 04:59:53;;;;;;;;;;;;;;;11.47;100.00;100346.72;7362268;19;19929;-62
2023/03/16 05:02:19;;;;;;;;;;;;;;;11.51;100.00;100345.38;7361466;19;20245;-63
2023/03/16 05:04:47;;;;;;;;;;;;;;;11.51;100.00;100341.91;7362472;19;20140;-63
2023/03/16 05:07:14;;;;;;;;;;;;;;;11.50;100.00;100341.09;7360654;19;19930;-62
2023/03/16 05:09:40;;;;;;;;;;;;;;;11.48;100.00;100332.53;7360881;19;19927;-65
2023/03/16 05:12:08;;;;;;;;;;;;;;;11.48;100.00;100335.16;7360921;19;19919;-64
2023/03/16 05:14:35;;;;;;;;;;;;;;;11.51;100.00;100331.38;7358435;19;20186;-63
2023/03/16 05:17:05;;;;;;;;;;;;;;;11.51;100.00;100331.38;7362723;19;21693;-62
2023/03/16 05:19:32;;;;;;;;;;;;;;;11.49;100.00;100333.34;7362086;19;20245;-61
2023/03/16 05:22:00;;;;;;;;;;;;;;;11.47;100.00;100330.91;7361899;19;19919;-63
2023/03/16 05:24:27;;;;;;;;;;;;;;;11.50;100.00;100327.91;7359898;19;20149;-63
2023/03/16 05:26:54;;;;;;;;;;;;;;;11.53;100.00;100321.47;7362443;19;19931;-61
2023/03/16 05:29:21;;;;;;;;;;;;;;;11.52;100.00;100330.38;7361064;19;19933;-63
2023/03/16 05:31:48;;;;;;;;;;;;;;;11.51;100.00;100323.47;7362228;19;19923;-63
2023/03/16 05:34:14;;;;;;;;;;;;;;;11.49;100.00;100334.16;7360449;19;20320;-62
2023/03/16 05:36:43;;;;;;;;;;;;;;;11.46;100.00;100324.00;7363906;19;19918;-63
2023/03/16 05:39:10;;;;;;;;;;;;;;;11.48;100.00;100319.34;7360072;19;19923;-62
2023/03/16 05:41:37;;;;;;;;;;;;;;;11.51;100.00;100315.56;7363286;19;19940;-64
2023/03/16 05:44:04;;;;;;;;;;;;;;;11.51;100.00;100323.47;7362756;19;19919;-62
2023/03/16 05:46:32;;;;;;;;;;;;;;;11.54;100.00;100313.41;7362645;19;20380;-62
2023/03/16 05:48:59;;;;;;;;;;;;;;;11.52;100.00;100317.22;7362231;19;19965;-62
2023/03/16 05:51:25;;;;;;;;;;;;;;;11.52;100.00;100310.13;7363762;19;20408;-63
2023/03/16 05:53:55;;;;;;;;;;;;;;;11.50;100.00;100322.66;7356989;19;21611;-63
2023/03/16 05:56:26;;;;;;;;;;;;;;;11.51;100.00;100326.94;7363120;19;20008;-63
2023/03/16 05:58:53;;;;;;;;;;;;;;;11.53;100.00;100322.28;7359066;19;19926;-62
2023/03/16 06:01:21;;;;;;;;;;;;;;;11.52;100.00;100322.47;7363073;19;19922;-63
2023/03/16 06:03:48;;;;;;;;;;;;;;;11.53;100.00;100324.94;7361631;19;21636;-62
2023/03/16 06:06:16;;;;;;;;;;;;;;;11.53;100.00;100311.75;7364164;19;20263;-63
2023/03/16 06:08:43;;;;;;;;;;;;;;;11.55;100.00;100307.16;7363122;19;20730;-63
2023/03/16 06:11:10;;;;;;;;;;;;;;;11.53;100.00;100314.38;7365767;19;19925;-62
2023/03/16 06:13:37;;;;;;;;;;;;;;;11.53;100.00;100309.13;7361629;19;19919;-62
2023/03/16 06:16:10;;;;;;;;;;;;;;;11.54;100.00;100310.75;7362465;19;20051;-62
2023/03/16 06:18:38;;;;;;;;;;;;;;;11.56;100.00;100314.06;7361701;19;21580;-63
2023/03/16 06:21:13;;;;;;;;;;;;;;;11.58;100.00;100312.06;7361511;19;20448;-62
2023/03/16 06:23:40;;;;;;;;;;;;;;;11.59;100.00;100310.25;7359134;19;19922;-62
2023/03/16 06:26:07;;;;;;;;;;;;;;;11.58;100.00;100308.59;7359480;19;19927;-62
2023/03/16 06:28:33;;;;;;;;;;;;;;;11.60;99.95;100311.91;7360701;19;19914;-64
2023/03/16 06:31:05;;;;;;;;;;;;;;;11.61;99.67;100297.72;7359959;19;20002;-63
2023/03/16 06:33:32;;;;;;;;;;;;;;;11.64;99.57;100302.66;7356820;19;20899;-65
2023/03/16 06:36:00;;;;;;;;;;;;;;;11.67;99.63;100304.94;7361660;19;19923;-63
2023/03/16 06:38:28;;;;;;;;;;;;;;;11.65;99.31;100298.19;7359305;19;19931;-62
2023/03/16 06:40:54;;;;;;;;;;;;;;;11.64;99.15;100300.00;7361330;19;19937;-64
2023/03/16 06:43:21;;;;;;;;;;;;;;;11.66;99.34;100318.28;7359190;19;19937;-63
2023/03/16 06:45:48;;;;;;;;;;;;;;;11.66;99.04;100313.03;7361768;19;20002;-64
2023/03/16 06:48:15;;;;;;;;;;;;;;;11.64;99.06;100323.72;7356052;19;20236;-64
2023/03/16 06:50:44;;;;;;;;;;;;;;;11.66;99.03;100323.56;7361690;19;19919;-64
2023/03/16 06:53:10;;;;;;;;;;;;;;;11.67;98.88;100320.75;7358563;19;20470;-62
2023/03/16 06:55:37;;;;;;;;;;;;;;;11.68;98.34;100326.84;7354990;19;20256;-62
2023/03/16 06:58:04;;;;;;;;;;;;;;;11.67;98.27;100309.41;7359882;19;20336;-63
2023/03/16 07:00:32;;;;;;;;;;;;;;;11.68;98.48;100319.78;7361099;19;19931;-62
2023/03/16 07:03:00;;;;;;;;;;;;;;;11.70;98.59;100323.03;7360822;19;19927;-64
2023/03/16 07:05:27;;;;;;;;;;;;;;;11.68;98.51;100327.69;7356704;19;19951;-63
2023/03/16 07:07:54;;;;;;;;;;;;;;;11.69;97.99;100324.03;7359667;19;20648;-63
2023/03/16 07:10:21;;;;;;;;;;;;;;;11.72;98.21;100325.50;7359007;19;20022;-65
2023/03/16 07:12:49;;;;;;;;;;;;;;;11.74;98.01;100321.72;7359697;19;19926;-64
2023/03/16 07:15:16;;;;;;;;;;;;;;;11.76;97.70;100322.38;7358533;19;20466;-62
2023/03/16 07:17:44;;;;;;;;;;;;;;;11.77;97.69;100316.13;7360240;19;19978;-62
2023/03/16 07:20:11;;;;;;;;;;;;;;;11.80;97.25;100307.88;7360109;19;19930;-63
2023/03/16 07:22:38;;;;;;;;;;;;;;;11.87;97.50;100310.63;7357934;19;19922;-64
2023/03/16 07:25:06;;;;;;;;;;;;;;;11.90;97.61;100305.00;7359025;19;19922;-62
2023/03/16 07:27:33;;;;;;;;;;;;;;;11.93;97.85;100299.41;7359099;19;19945;-63
2023/03/16 07:29:59;;;;;;;;;;;;;;;11.94;97.66;100301.03;7354287;19;19933;-63
2023/03/16 07:32:26;;;;;;;;;;;;;;;11.97;97.46;100316.50;7352481;19;20643;-62
2023/03/16 07:34:53;;;;;;;;;;;;;;;11.96;97.22;100299.03;7355635;19;21120;-62
2023/03/16 07:37:23;;;;;;;;;;;;;;;11.94;96.86;100299.19;7357023;19;20389;-63
2023/03/16 07:39:51;;;;;;;;;;;;;;;11.93;96.93;100292.31;7357103;19;19945;-67
2023/03/16 07:42:18;;;;;;;;;;;;;;;11.96;96.97;100286.69;7357412;19;20623;-64
2023/03/16 07:44:46;;;;;;;;;;;;;;;11.95;96.65;100284.22;7356329;19;19918;-63
2023/03/16 07:47:15;;;;;;;;;;;;;;;11.96;96.55;100273.50;7357576;19;19982;-63
2023/03/16 07:49:43;;;;;;;;;;;;;;;11.95;96.19;100276.31;7356791;19;20248;-63
2023/03/16 07:52:12;;;;;;;;;;;;;;;11.95;96.14;100278.94;7356934;19;19923;-62
2023/03/16 07:54:39;;;;;;;;;;;;;;;11.97;96.54;100282.22;7354205;19;19927;-62
2023/03/16 07:57:06;;;;;;;;;;;;;;;12.03;97.05;100276.25;7357049;19;19962;-63
2023/03/16 07:59:33;;;;;;;;;;;;;;;12.09;97.06;100291.34;7358786;19;19952;-62
2023/03/16 08:02:00;;;;;;;;;;;;;;;12.11;96.54;100309.66;7358612;19;19918;-63
2023/03/16 08:04:28;;;;;;;;;;;;;;;12.12;96.28;100291.03;7359657;19;19965;-63
2023/03/16 08:06:59;;;;;;;;;;;;;;;12.15;95.97;100301.22;7358387;19;19940;-63
2023/03/16 08:09:26;;;;;;;;;;;;;;;12.16;95.71;100309.94;7357889;19;19931;-63
2023/03/16 08:11:53;;;;;;;;;;;;;;;12.15;95.08;100316.22;7366825;19;19953;-62
2023/03/16 08:14:20;;;;;;;;;;;;;;;12.17;95.00;100327.41;7364558;19;21623;-62
2023/03/16 08:16:48;;;;;;;;;;;;;;;12.16;94.68;100321.31;7365964;19;20028;-63
2023/03/16 08:19:16;;;;;;;;;;;;;;;12.19;94.67;100326.22;7364021;19;19935;-63
2023/03/16 08:21:43;;;;;;;;;;;;;;;12.19;94.44;100326.22;7366954;19;19927;-63
2023/03/16 08:24:26;;;;;;;;;;;;;;;12.23;94.67;100321.44;7364455;19;19934;-63
2023/03/16 08:26:55;;;;;;;;;;;;;;;12.27;94.33;100318.28;7366113;19;19926;-62
2023/03/16 08:29:22;;;;;;;;;;;;;;;12.32;94.37;100330.94;7365746;19;20521;-63
2023/03/16 08:31:50;;;;;;;;;;;;;;;12.36;93.99;100321.66;7365076;19;19942;-63
2023/03/16 08:34:18;;;;;;;;;;;;;;;12.36;93.32;100311.09;7364596;19;20476;-64
2023/03/16 08:36:45;;;;;;;;;;;;;;;12.38;93.18;100317.03;7366557;19;19923;-62
2023/03/16 08:39:12;;;;;;;;;;;;;;;12.40;93.35;100315.84;7361249;19;20578;-66
2023/03/16 08:41:39;;;;;;;;;;;;;;;12.41;93.09;100308.75;7361504;19;19922;-65
2023/03/16 08:44:06;;;;;;;;;;;;;;;12.44;93.18;100313.69;7356533;19;19983;-64
2023/03/16 08:46:34;;;;;;;;;;;;;;;12.41;92.77;100309.59;7363862;19;19936;-63
2023/03/16 08:49:01;;;;;;;;;;;;;;;12.46;92.38;100311.69;7364156;19;19941;-63
2023/03/16 08:51:29;;;;;;;;;;;;;;;12.55;92.72;100323.81;7362893;19;19931;-64
2023/03/16 08:53:57;;;;;;;;;;;;;;;12.59;93.05;100319.84;7354099;19;19919;-63
2023/03/16 08:56:24;;;;;;;;;;;;;;;12.64;92.91;100322.75;7364526;19;20013;-63
2023/03/16 08:58:51;;;;;;;;;;;;;;;12.65;92.28;100320.91;7365529;19;19994;-63
2023/03/16 09:01:19;;;;;;;;;;;;;;;12.67;91.77;100319.75;7362296;19;19923;-64
2023/03/16 09:03:46;;;;;;;;;;;;;;;12.65;91.14;100329.66;7363534;19;19934;-62
2023/03/16 09:06:14;;;;;;;;;;;;;;;12.64;90.47;100316.66;7363870;19;20294;-62
2023/03/16 09:08:44;;;;;;;;;;;;;;;12.61;90.58;100309.91;7362208;19;19922;-64
2023/03/16 09:11:15;;;;;;;;;;;;;;;12.63;90.51;100307.09;7363795;19;19994;-63
2023/03/16 09:13:43;;;;;;;;;;;;;;;12.65;90.99;100300.63;7363910;19;19922;-64
2023/03/16 09:16:11;;;;;;;;;;;;;;;12.68;91.18;100296.81;7362051;19;21629;-63
2023/03/16 09:18:38;;;;;;;;;;;;;;;12.71;91.18;100291.16;7363757;19;19978;-63
2023/03/16 09:21:11;;;;;;;;;;;;;;;12.66;90.19;100289.06;7361878;19;19923;-63
2023/03/16 09:23:40;;;;;;;;;;;;;;;12.69;91.00;100296.66;7359058;19;19923;-63
2023/03/16 09:26:07;;;;;;;;;;;;;;;12.71;90.93;100293.81;7364009;19;20384;-63
2023/03/16 09:28:35;;;;;;;;;;;;;;;12.71;90.20;100297.28;7362525;19;20002;-64
2023/03/16 09:31:15;;;;;;;;;;;;;;;12.75;90.24;100305.66;7362975;19;20343;-63
2023/03/16 09:33:42;;;;;;;;;;;;;;;12.77;90.05;100303.66;7360510;19;20260;-63
2023/03/16 09:36:12;;;;;;;;;;;;;;;12.82;90.09;100296.84;7359128;19;20655;-63
2023/03/16 09:38:40;;;;;;;;;;;;;;;12.88;90.06;100299.75;7361320;19;19947;-64
2023/03/16 09:41:11;;;;;;;;;;;;;;;12.92;89.75;100293.09;7364491;19;20511;-63
2023/03/16 09:43:38;;;;;;;;;;;;;;;12.93;89.03;100297.41;7363353;19;19926;-62
2023/03/16 09:46:21;;;;;;;;;;;;;;;12.96;88.80;100286.47;7363119;19;19922;-64
2023/03/16 09:48:48;;;;;;;;;;;;;;;13.04;89.31;100284.56;7363166;19;19940;-63
2023/03/16 09:51:21;;;;;;;;;;;;;;;13.13;88.25;100288.78;7359676;19;19923;-65
2023/03/16 09:53:55;;;;;;;;;;;;;;;13.21;87.80;100287.84;7358347;19;20352;-64
2023/03/16 09:56:35;;;;;;;;;;;;;;;13.32;87.40;100289.22;7360973;19;20376;-63
2023/03/16 09:59:09;;;;;;;;;;;;;;;13.43;86.95;100296.69;7361999;19;19938;-62
2023/03/16 10:01:39;;;;;;;;;;;;;;;13.50;86.67;100284.38;7363444;19;20067;-63
2023/03/16 10:04:25;;;;;;;;;;;;;;;13.57;87.00;100288.72;7361677;19;19922;-63
2023/03/16 10:07:18;;;;;;;;;;;;;;;13.59;86.30;100292.00;7364088;19;20002;-62
2023/03/16 10:10:05;;;;;;;;;;;;;;;13.63;85.75;100277.41;7359186;19;21685;-63
2023/03/16 10:12:36;;;;;;;;;;;;;;;13.73;86.15;100287.69;7360358;19;19946;-64
2023/03/16 10:15:15;;;;;;;;;;;;;;;13.76;85.54;100282.03;7361169;19;19914;-63
2023/03/16 10:17:50;;;;;;;;;;;;;;;13.76;84.79;100279.41;7359981;19;20410;-63
2023/03/16 10:20:20;;;;;;;;;;;;;;;13.78;84.87;100279.19;7363689;19;19935;-63
2023/03/16 10:22:51;;;;;;;;;;;;;;;13.88;85.01;100277.06;7363105;19;19986;-63
2023/03/16 10:25:22;;;;;;;;;;;;;;;13.91;83.53;100282.00;7360376;19;19935;-63
2023/03/16 10:27:51;;;;;;;;;;;;;;;13.98;83.38;100277.56;7362574;19;19923;-63
2023/03/16 10:30:23;;;;;;;;;;;;;;;14.10;83.58;100268.13;7361604;19;19922;-63
2023/03/16 10:32:50;;;;;;;;;;;;;;;14.13;82.39;100268.56;7361022;19;20327;-63
2023/03/16 10:35:28;;;;;;;;;;;;;;;14.20;82.49;100265.97;7356416;19;19919;-62
2023/03/16 10:37:57;;;;;;;;;;;;;;;14.31;81.92;100260.19;7363538;19;20027;-62
2023/03/16 10:40:25;;;;;;;;;;;;;;;14.36;81.35;100241.94;7359480;19;20250;-65
2023/03/16 10:42:52;;;;;;;;;;;;;;;14.46;81.62;100236.31;7358306;19;19919;-64
2023/03/16 10:45:27;;;;;;;;;;;;;;;14.51;80.39;100250.59;7358685;19;19980;-64
2023/03/16 10:48:06;;;;;;;;;;;;;;;14.53;80.03;100237.16;7359998;19;19952;-62
2023/03/16 10:50:35;;;;;;;;;;;;;;;14.60;79.58;100237.19;7360672;19;20302;-61
2023/03/16 10:53:02;;;;;;;;;;;;;;;14.67;79.46;100238.06;7358723;19;19919;-63
2023/03/16 10:55:31;;;;;;;;;;;;;;;14.76;78.91;100226.31;7357469;19;19923;-62
2023/03/16 10:58:00;;;;;;;;;;;;;;;14.86;79.06;100238.19;7360167;19;20369;-66
2023/03/16 11:00:45;;;;;;;;;;;;;;;14.88;76.96;100233.50;7358533;19;19926;-62
2023/03/16 11:03:27;;;;;;;;;;;;;;;14.94;77.15;100232.72;7356784;19;19922;-64
2023/03/16 11:05:59;;;;;;;;;;;;;;;14.94;75.58;100229.25;7360531;19;19914;-64
2023/03/16 11:08:31;;;;;;;;;;;;;;;14.89;74.66;100227.19;7352535;19;20090;-63
2023/03/16 11:11:13;;;;;;;;;;;;;;;14.88;73.83;100219.47;7357751;19;21751;-62
2023/03/16 11:13:44;;;;;;;;;;;;;;;14.90;73.98;100220.06;7358968;19;19933;-62
2023/03/16 11:16:31;;;;;;;;;;;;;;;14.95;73.96;100220.31;7358953;19;19926;-62
2023/03/16 11:19:03;;;;;;;;;;;;;;;14.98;73.28;100215.41;7358533;19;20290;-61
2023/03/16 11:21:53;;;;;;;;;;;;;;;15.04;72.57;100202.41;7355747;19;19929;-62
2023/03/16 11:24:44;;;;;;;;;;;;;;;15.08;72.65;100201.84;7354477;19;20526;-62
2023/03/16 11:27:22;;;;;;;;;;;;;;;15.15;71.16;100196.53;7341895;19;19919;-63
2023/03/16 11:30:04;;;;;;;;;;;;;;;15.17;70.95;100189.22;7355421;19;19915;-63
2023/03/16 11:32:36;;;;;;;;;;;;;;;15.22;71.96;100190.25;7358252;19;20013;-63
2023/03/16 11:35:15;;;;;;;;;;;;;;;15.27;71.53;100189.66;7356633;19;19970;-63
2023/03/16 11:37:47;;;;;;;;;;;;;;;15.26;70.69;100185.38;7356556;19;19930;-63
2023/03/16 11:40:37;;;;;;;;;;;;;;;15.25;69.31;100184.53;7356356;19;20345;-62
2023/03/16 11:43:18;;;;;;;;;;;;;;;15.24;69.01;100187.38;7355671;19;19919;-64
2023/03/16 11:45:54;;;;;;;;;;;;;;;15.25;68.82;100179.25;7356329;19;20006;-63
2023/03/16 11:48:30;;;;;;;;;;;;;;;15.29;68.96;100171.72;7356243;19;19919;-62
2023/03/16 11:51:09;;;;;;;;;;;;;;;15.33;68.92;100165.84;7357905;19;19918;-63
2023/03/16 11:53:42;;;;;;;;;;;;;;;15.39;68.36;100170.31;7355208;19;19915;-64
2023/03/16 11:56:16;;;;;;;;;;;;;;;15.43;68.31;100170.75;7355163;19;20557;-63
2023/03/16 11:58:49;;;;;;;;;;;;;;;15.48;68.41;100170.97;7357728;19;20093;-63
2023/03/16 12:01:24;;;;;;;;;;;;;;;15.53;69.01;100173.03;7358719;19;19918;-62
2023/03/16 12:03:53;;;;;;;;;;;;;;;15.51;69.76;100180.34;7357513;19;19926;-63
2023/03/16 12:06:22;;;;;;;;;;;;;;;15.55;70.79;100182.41;7361158;19;20433;-63
2023/03/16 12:08:56;;;;;;;;;;;;;;;15.54;69.44;100180.81;7358548;19;19929;-64
2023/03/16 12:11:26;;;;;;;;;;;;;;;15.55;68.71;100182.41;7363230;19;19951;-62
2023/03/16 12:14:05;;;;;;;;;;;;;;;15.57;69.25;100183.03;7359460;19;19937;-64
2023/03/16 12:16:43;;;;;;;;;;;;;;;15.55;68.48;100189.56;7360836;19;19933;-63
2023/03/16 12:19:20;;;;;;;;;;;;;;;15.54;67.55;100190.59;7357588;19;19934;-63
2023/03/16 12:21:52;;;;;;;;;;;;;;;15.52;67.94;100177.53;7357586;19;20379;-64
2023/03/16 12:24:23;;;;;;;;;;;;;;;15.45;67.38;100179.28;7353745;19;19922;-65
2023/03/16 12:26:51;;;;;;;;;;;;;;;15.43;68.63;100178.69;7358886;19;21591;-64
2023/03/16 12:29:27;;;;;;;;;;;;;;;15.40;69.36;100165.81;7356641;19;19919;-65
2023/03/16 12:32:07;;;;;;;;;;;;;;;15.38;70.10;100175.84;7352552;19;19923;-67
2023/03/16 12:34:46;;;;;;;;;;;;;;;15.35;70.21;100169.09;7351095;19;19927;-63
2023/03/16 12:37:18;;;;;;;;;;;;;;;15.32;70.20;100172.16;7355718;19;19965;-62
2023/03/16 12:39:54;;;;;;;;;;;;;;;15.30;71.31;100170.69;7355326;19;19933;-62
2023/03/16 12:42:20;;;;;;;;;;;;;;;15.34;71.58;100166.63;7355020;19;19941;-64
2023/03/16 12:44:56;;;;;;;;;;;;;;;15.35;69.04;100168.25;7358095;19;19961;-64